sensor_id;sensor_type;location;lat;lon;timestamp;P1;durP1;ratioP1;P2;durP2;ratioP2
45065;SDS011;30830;53.704;10.004;2023-06-14T00:01:26;5.72;;;4.28;;
45065;SDS011;30830;53.704;10.004;2023-06-14T00:03:52;5.32;;;3.47;;
45065;SDS011;30830;53.704;10.004;2023-06-14T00:06:19;7.85;;;4.40;;
45065;SDS011;30830;53.704;10.004;2023-06-14T00:08:44;6.50;;;4.35;;
45065;SDS011;30830;53.704;10.004;2023-06-14T00:11:10;5.60;;;3.85;;
45065;SDS011;30830;53.704;10.004;2023-06-14T00:13:35;4.63;;;3.22;;
45065;SDS011;30830;53.704;10.004;2023-06-14T00:16:01;7.78;;;4.70;;
45065;SDS011;30830;53.704;10.004;2023-06-14T00:18:26;5.15;;;3.80;;
45065;SDS011;30830;53.704;10.004;2023-06-14T00:20:54;6.63;;;4.25;;
45065;SDS011;30830;53.704;10.004;2023-06-14T00:23:20;5.68;;;3.63;;
45065;SDS011;30830;53.704;10.004;2023-06-14T00:25:46;6.70;;;4.60;;
45065;SDS011;30830;53.704;10.004;2023-06-14T00:28:12;6.93;;;4.20;;
45065;SDS011;30830;53.704;10.004;2023-06-14T00:30:38;5.75;;;4.18;;
45065;SDS011;30830;53.704;10.004;2023-06-14T00:33:03;7.05;;;4.38;;
45065;SDS011;30830;53.704;10.004;2023-06-14T00:35:29;4.90;;;3.58;;
45065;SDS011;30830;53.704;10.004;2023-06-14T00:37:55;8.10;;;5.13;;
45065;SDS011;30830;53.704;10.004;2023-06-14T00:40:20;7.18;;;4.18;;
45065;SDS011;30830;53.704;10.004;2023-06-14T00:42:46;7.50;;;3.90;;
45065;SDS011;30830;53.704;10.004;2023-06-14T00:45:12;8.70;;;4.57;;
45065;SDS011;30830;53.704;10.004;2023-06-14T00:47:38;6.38;;;4.43;;
45065;SDS011;30830;53.704;10.004;2023-06-14T00:50:06;6.00;;;4.40;;
45065;SDS011;30830;53.704;10.004;2023-06-14T00:52:32;5.38;;;3.70;;
45065;SDS011;30830;53.704;10.004;2023-06-14T00:54:59;6.82;;;4.15;;
45065;SDS011;30830;53.704;10.004;2023-06-14T00:57:25;6.47;;;4.68;;
45065;SDS011;30830;53.704;10.004;2023-06-14T00:59:52;5.72;;;4.10;;
45065;SDS011;30830;53.704;10.004;2023-06-14T01:02:17;4.78;;;3.35;;
45065;SDS011;30830;53.704;10.004;2023-06-14T01:04:44;7.50;;;3.80;;
45065;SDS011;30830;53.704;10.004;2023-06-14T01:10:03;9.05;;;4.35;;
45065;SDS011;30830;53.704;10.004;2023-06-14T01:12:50;6.38;;;3.83;;
45065;SDS011;30830;53.704;10.004;2023-06-14T01:15:20;6.50;;;3.95;;
45065;SDS011;30830;53.704;10.004;2023-06-14T01:17:46;5.82;;;3.80;;
45065;SDS011;30830;53.704;10.004;2023-06-14T01:20:16;5.03;;;4.22;;
45065;SDS011;30830;53.704;10.004;2023-06-14T01:22:51;6.05;;;3.90;;
45065;SDS011;30830;53.704;10.004;2023-06-14T01:25:18;5.45;;;4.15;;
45065;SDS011;30830;53.704;10.004;2023-06-14T01:27:52;6.80;;;3.67;;
45065;SDS011;30830;53.704;10.004;2023-06-14T01:30:22;7.43;;;4.28;;
45065;SDS011;30830;53.704;10.004;2023-06-14T01:32:50;5.80;;;3.47;;
45065;SDS011;30830;53.704;10.004;2023-06-14T01:35:17;5.13;;;4.60;;
45065;SDS011;30830;53.704;10.004;2023-06-14T01:37:43;9.40;;;4.30;;
45065;SDS011;30830;53.704;10.004;2023-06-14T01:40:11;6.97;;;4.50;;
45065;SDS011;30830;53.704;10.004;2023-06-14T01:42:39;6.50;;;4.90;;
45065;SDS011;30830;53.704;10.004;2023-06-14T01:45:06;6.53;;;4.50;;
45065;SDS011;30830;53.704;10.004;2023-06-14T01:47:32;4.70;;;3.75;;
45065;SDS011;30830;53.704;10.004;2023-06-14T01:49:58;6.68;;;4.43;;
45065;SDS011;30830;53.704;10.004;2023-06-14T01:52:24;7.07;;;3.30;;
45065;SDS011;30830;53.704;10.004;2023-06-14T01:54:50;5.93;;;3.33;;
45065;SDS011;30830;53.704;10.004;2023-06-14T01:57:15;4.18;;;3.13;;
45065;SDS011;30830;53.704;10.004;2023-06-14T01:59:41;7.70;;;3.83;;
45065;SDS011;30830;53.704;10.004;2023-06-14T02:02:06;4.18;;;3.53;;
45065;SDS011;30830;53.704;10.004;2023-06-14T02:04:32;4.97;;;2.85;;
45065;SDS011;30830;53.704;10.004;2023-06-14T02:06:58;6.75;;;3.83;;
45065;SDS011;30830;53.704;10.004;2023-06-14T02:09:24;5.68;;;3.88;;
45065;SDS011;30830;53.704;10.004;2023-06-14T02:11:50;9.38;;;3.92;;
45065;SDS011;30830;53.704;10.004;2023-06-14T02:14:15;7.25;;;3.70;;
45065;SDS011;30830;53.704;10.004;2023-06-14T02:16:42;9.43;;;3.92;;
45065;SDS011;30830;53.704;10.004;2023-06-14T02:19:13;5.03;;;3.35;;
45065;SDS011;30830;53.704;10.004;2023-06-14T02:21:43;4.47;;;4.07;;
45065;SDS011;30830;53.704;10.004;2023-06-14T02:24:09;6.70;;;4.18;;
45065;SDS011;30830;53.704;10.004;2023-06-14T02:26:35;5.68;;;4.25;;
45065;SDS011;30830;53.704;10.004;2023-06-14T02:29:00;7.70;;;3.85;;
45065;SDS011;30830;53.704;10.004;2023-06-14T02:31:26;6.90;;;4.22;;
45065;SDS011;30830;53.704;10.004;2023-06-14T02:33:52;5.93;;;3.80;;
45065;SDS011;30830;53.704;10.004;2023-06-14T02:36:18;7.53;;;4.13;;
45065;SDS011;30830;53.704;10.004;2023-06-14T02:38:43;5.97;;;4.43;;
45065;SDS011;30830;53.704;10.004;2023-06-14T02:41:10;7.13;;;4.10;;
45065;SDS011;30830;53.704;10.004;2023-06-14T02:43:35;6.10;;;4.18;;
45065;SDS011;30830;53.704;10.004;2023-06-14T02:46:01;6.35;;;4.43;;
45065;SDS011;30830;53.704;10.004;2023-06-14T02:48:27;5.50;;;4.53;;
45065;SDS011;30830;53.704;10.004;2023-06-14T02:50:53;7.22;;;4.75;;
45065;SDS011;30830;53.704;10.004;2023-06-14T02:53:18;8.10;;;5.13;;
45065;SDS011;30830;53.704;10.004;2023-06-14T02:55:44;5.90;;;4.82;;
45065;SDS011;30830;53.704;10.004;2023-06-14T02:58:09;9.05;;;4.55;;
45065;SDS011;30830;53.704;10.004;2023-06-14T03:00:35;7.05;;;4.40;;
45065;SDS011;30830;53.704;10.004;2023-06-14T03:03:01;5.93;;;4.10;;
45065;SDS011;30830;53.704;10.004;2023-06-14T03:05:27;7.82;;;4.53;;
45065;SDS011;30830;53.704;10.004;2023-06-14T03:07:53;9.65;;;4.93;;
45065;SDS011;30830;53.704;10.004;2023-06-14T03:10:19;8.35;;;4.93;;
45065;SDS011;30830;53.704;10.004;2023-06-14T03:12:44;9.52;;;4.72;;
45065;SDS011;30830;53.704;10.004;2023-06-14T03:15:10;6.18;;;3.97;;
45065;SDS011;30830;53.704;10.004;2023-06-14T03:17:38;6.05;;;4.68;;
45065;SDS011;30830;53.704;10.004;2023-06-14T03:20:03;7.07;;;5.22;;
45065;SDS011;30830;53.704;10.004;2023-06-14T03:22:33;6.18;;;4.70;;
45065;SDS011;30830;53.704;10.004;2023-06-14T03:24:59;6.75;;;5.10;;
45065;SDS011;30830;53.704;10.004;2023-06-14T03:27:25;9.95;;;5.35;;
45065;SDS011;30830;53.704;10.004;2023-06-14T03:29:53;7.30;;;5.20;;
45065;SDS011;30830;53.704;10.004;2023-06-14T03:32:18;6.03;;;4.65;;
45065;SDS011;30830;53.704;10.004;2023-06-14T03:34:44;6.45;;;5.18;;
45065;SDS011;30830;53.704;10.004;2023-06-14T03:37:10;7.47;;;5.00;;
45065;SDS011;30830;53.704;10.004;2023-06-14T03:39:35;6.40;;;4.88;;
45065;SDS011;30830;53.704;10.004;2023-06-14T03:42:01;7.10;;;5.18;;
45065;SDS011;30830;53.704;10.004;2023-06-14T03:44:27;10.10;;;4.93;;
45065;SDS011;30830;53.704;10.004;2023-06-14T03:46:53;7.55;;;5.47;;
45065;SDS011;30830;53.704;10.004;2023-06-14T03:49:18;10.27;;;5.90;;
45065;SDS011;30830;53.704;10.004;2023-06-14T03:51:44;8.93;;;5.60;;
45065;SDS011;30830;53.704;10.004;2023-06-14T03:54:10;8.55;;;5.20;;
45065;SDS011;30830;53.704;10.004;2023-06-14T03:56:36;8.20;;;5.40;;
45065;SDS011;30830;53.704;10.004;2023-06-14T03:59:01;10.65;;;5.80;;
45065;SDS011;30830;53.704;10.004;2023-06-14T04:01:27;7.00;;;5.03;;
45065;SDS011;30830;53.704;10.004;2023-06-14T04:03:55;9.73;;;4.63;;
45065;SDS011;30830;53.704;10.004;2023-06-14T04:06:23;7.75;;;6.43;;
45065;SDS011;30830;53.704;10.004;2023-06-14T04:08:50;6.05;;;4.82;;
45065;SDS011;30830;53.704;10.004;2023-06-14T04:11:17;8.52;;;5.57;;
45065;SDS011;30830;53.704;10.004;2023-06-14T04:13:42;8.05;;;5.05;;
45065;SDS011;30830;53.704;10.004;2023-06-14T04:16:09;7.93;;;4.97;;
45065;SDS011;30830;53.704;10.004;2023-06-14T04:18:34;7.32;;;4.85;;
45065;SDS011;30830;53.704;10.004;2023-06-14T04:21:00;10.13;;;5.28;;
45065;SDS011;30830;53.704;10.004;2023-06-14T04:23:26;6.90;;;4.90;;
45065;SDS011;30830;53.704;10.004;2023-06-14T04:25:53;8.20;;;5.68;;
45065;SDS011;30830;53.704;10.004;2023-06-14T04:28:18;6.18;;;4.70;;
45065;SDS011;30830;53.704;10.004;2023-06-14T04:30:44;10.63;;;5.75;;
45065;SDS011;30830;53.704;10.004;2023-06-14T04:33:12;6.22;;;4.47;;
45065;SDS011;30830;53.704;10.004;2023-06-14T04:35:38;6.10;;;4.68;;
45065;SDS011;30830;53.704;10.004;2023-06-14T04:38:05;6.03;;;4.70;;
45065;SDS011;30830;53.704;10.004;2023-06-14T04:40:34;6.28;;;5.40;;
45065;SDS011;30830;53.704;10.004;2023-06-14T04:43:01;8.95;;;5.15;;
45065;SDS011;30830;53.704;10.004;2023-06-14T04:45:30;9.27;;;5.57;;
45065;SDS011;30830;53.704;10.004;2023-06-14T04:47:56;8.02;;;5.22;;
45065;SDS011;30830;53.704;10.004;2023-06-14T04:50:24;6.95;;;4.90;;
45065;SDS011;30830;53.704;10.004;2023-06-14T04:52:49;6.93;;;4.90;;
45065;SDS011;30830;53.704;10.004;2023-06-14T04:55:16;7.22;;;5.10;;
45065;SDS011;30830;53.704;10.004;2023-06-14T04:57:44;8.52;;;5.15;;
45065;SDS011;30830;53.704;10.004;2023-06-14T05:00:09;7.93;;;4.97;;
45065;SDS011;30830;53.704;10.004;2023-06-14T05:02:36;5.28;;;4.47;;
45065;SDS011;30830;53.704;10.004;2023-06-14T05:05:03;7.35;;;5.10;;
45065;SDS011;30830;53.704;10.004;2023-06-14T05:07:32;8.60;;;5.18;;
45065;SDS011;30830;53.704;10.004;2023-06-14T05:09:58;7.70;;;4.47;;
45065;SDS011;30830;53.704;10.004;2023-06-14T05:12:24;7.10;;;5.53;;
45065;SDS011;30830;53.704;10.004;2023-06-14T05:14:50;5.28;;;3.67;;
45065;SDS011;30830;53.704;10.004;2023-06-14T05:17:15;5.57;;;4.03;;
45065;SDS011;30830;53.704;10.004;2023-06-14T05:19:42;11.32;;;5.57;;
45065;SDS011;30830;53.704;10.004;2023-06-14T05:22:07;5.20;;;4.35;;
45065;SDS011;30830;53.704;10.004;2023-06-14T05:24:33;4.40;;;3.70;;
45065;SDS011;30830;53.704;10.004;2023-06-14T05:26:58;5.60;;;3.70;;
45065;SDS011;30830;53.704;10.004;2023-06-14T05:29:24;7.00;;;4.43;;
45065;SDS011;30830;53.704;10.004;2023-06-14T05:31:50;6.47;;;3.38;;
45065;SDS011;30830;53.704;10.004;2023-06-14T05:34:16;6.28;;;4.13;;
45065;SDS011;30830;53.704;10.004;2023-06-14T05:36:42;6.22;;;4.07;;
45065;SDS011;30830;53.704;10.004;2023-06-14T05:39:07;5.47;;;3.55;;
45065;SDS011;30830;53.704;10.004;2023-06-14T05:41:33;6.70;;;3.95;;
45065;SDS011;30830;53.704;10.004;2023-06-14T05:43:59;5.40;;;3.97;;
45065;SDS011;30830;53.704;10.004;2023-06-14T05:46:25;5.53;;;3.70;;
45065;SDS011;30830;53.704;10.004;2023-06-14T05:48:51;8.32;;;3.50;;
45065;SDS011;30830;53.704;10.004;2023-06-14T05:51:17;4.72;;;3.63;;
45065;SDS011;30830;53.704;10.004;2023-06-14T05:53:47;5.68;;;3.70;;
45065;SDS011;30830;53.704;10.004;2023-06-14T05:56:13;8.13;;;3.90;;
45065;SDS011;30830;53.704;10.004;2023-06-14T05:58:39;4.90;;;3.40;;
45065;SDS011;30830;53.704;10.004;2023-06-14T06:01:05;6.32;;;3.50;;
45065;SDS011;30830;53.704;10.004;2023-06-14T06:03:31;6.32;;;3.47;;
45065;SDS011;30830;53.704;10.004;2023-06-14T06:05:57;6.38;;;4.07;;
45065;SDS011;30830;53.704;10.004;2023-06-14T06:08:23;5.18;;;3.13;;
45065;SDS011;30830;53.704;10.004;2023-06-14T06:10:48;7.03;;;3.88;;
45065;SDS011;30830;53.704;10.004;2023-06-14T06:13:14;5.32;;;3.13;;
45065;SDS011;30830;53.704;10.004;2023-06-14T06:15:40;4.80;;;3.05;;
45065;SDS011;30830;53.704;10.004;2023-06-14T06:18:06;4.68;;;2.90;;
45065;SDS011;30830;53.704;10.004;2023-06-14T06:20:31;7.53;;;2.83;;
45065;SDS011;30830;53.704;10.004;2023-06-14T06:23:00;4.53;;;3.17;;
45065;SDS011;30830;53.704;10.004;2023-06-14T06:25:26;7.05;;;3.08;;
45065;SDS011;30830;53.704;10.004;2023-06-14T06:27:52;3.88;;;2.97;;
45065;SDS011;30830;53.704;10.004;2023-06-14T06:30:19;3.30;;;2.33;;
45065;SDS011;30830;53.704;10.004;2023-06-14T06:32:45;3.92;;;2.33;;
45065;SDS011;30830;53.704;10.004;2023-06-14T06:35:11;4.20;;;2.65;;
45065;SDS011;30830;53.704;10.004;2023-06-14T06:37:41;3.42;;;2.22;;
45065;SDS011;30830;53.704;10.004;2023-06-14T06:40:07;2.63;;;2.00;;
45065;SDS011;30830;53.704;10.004;2023-06-14T06:42:33;2.55;;;2.03;;
45065;SDS011;30830;53.704;10.004;2023-06-14T06:44:59;3.45;;;2.25;;
45065;SDS011;30830;53.704;10.004;2023-06-14T06:47:25;2.63;;;2.22;;
45065;SDS011;30830;53.704;10.004;2023-06-14T06:49:51;2.75;;;2.53;;
45065;SDS011;30830;53.704;10.004;2023-06-14T06:52:16;2.75;;;2.15;;
45065;SDS011;30830;53.704;10.004;2023-06-14T06:54:42;2.85;;;2.13;;
45065;SDS011;30830;53.704;10.004;2023-06-14T06:57:08;2.10;;;1.92;;
45065;SDS011;30830;53.704;10.004;2023-06-14T06:59:34;4.68;;;2.13;;
45065;SDS011;30830;53.704;10.004;2023-06-14T07:01:59;2.08;;;1.75;;
45065;SDS011;30830;53.704;10.004;2023-06-14T07:04:25;3.85;;;2.20;;
45065;SDS011;30830;53.704;10.004;2023-06-14T07:06:51;3.42;;;1.88;;
45065;SDS011;30830;53.704;10.004;2023-06-14T07:09:16;2.78;;;2.03;;
45065;SDS011;30830;53.704;10.004;2023-06-14T07:11:43;2.85;;;2.17;;
45065;SDS011;30830;53.704;10.004;2023-06-14T07:14:09;3.10;;;2.03;;
45065;SDS011;30830;53.704;10.004;2023-06-14T07:16:35;4.35;;;2.42;;
45065;SDS011;30830;53.704;10.004;2023-06-14T07:19:02;4.22;;;3.03;;
45065;SDS011;30830;53.704;10.004;2023-06-14T07:21:28;2.72;;;2.15;;
45065;SDS011;30830;53.704;10.004;2023-06-14T07:23:54;5.60;;;2.00;;
45065;SDS011;30830;53.704;10.004;2023-06-14T07:26:20;2.67;;;2.33;;
45065;SDS011;30830;53.704;10.004;2023-06-14T07:28:46;2.33;;;1.90;;
45065;SDS011;30830;53.704;10.004;2023-06-14T07:31:12;4.65;;;2.65;;
45065;SDS011;30830;53.704;10.004;2023-06-14T07:33:39;2.75;;;2.08;;
45065;SDS011;30830;53.704;10.004;2023-06-14T07:36:05;4.95;;;2.17;;
45065;SDS011;30830;53.704;10.004;2023-06-14T07:38:31;2.75;;;1.92;;
45065;SDS011;30830;53.704;10.004;2023-06-14T07:40:56;2.58;;;2.13;;
45065;SDS011;30830;53.704;10.004;2023-06-14T07:43:22;5.60;;;2.00;;
45065;SDS011;30830;53.704;10.004;2023-06-14T07:45:47;2.20;;;1.98;;
45065;SDS011;30830;53.704;10.004;2023-06-14T07:48:13;4.18;;;2.00;;
45065;SDS011;30830;53.704;10.004;2023-06-14T07:50:39;3.58;;;2.15;;
45065;SDS011;30830;53.704;10.004;2023-06-14T07:53:04;3.33;;;2.28;;
45065;SDS011;30830;53.704;10.004;2023-06-14T07:55:30;3.00;;;1.77;;
45065;SDS011;30830;53.704;10.004;2023-06-14T07:57:57;2.55;;;2.13;;
45065;SDS011;30830;53.704;10.004;2023-06-14T08:00:23;2.03;;;1.83;;
45065;SDS011;30830;53.704;10.004;2023-06-14T08:02:49;3.00;;;2.30;;
45065;SDS011;30830;53.704;10.004;2023-06-14T08:05:16;2.95;;;2.20;;
45065;SDS011;30830;53.704;10.004;2023-06-14T08:07:42;4.55;;;2.08;;
45065;SDS011;30830;53.704;10.004;2023-06-14T08:10:08;3.30;;;2.22;;
45065;SDS011;30830;53.704;10.004;2023-06-14T08:12:34;3.83;;;2.10;;
45065;SDS011;30830;53.704;10.004;2023-06-14T08:14:59;4.30;;;2.35;;
45065;SDS011;30830;53.704;10.004;2023-06-14T08:17:25;2.45;;;2.00;;
45065;SDS011;30830;53.704;10.004;2023-06-14T08:19:51;2.20;;;2.05;;
45065;SDS011;30830;53.704;10.004;2023-06-14T08:22:20;2.95;;;2.50;;
45065;SDS011;30830;53.704;10.004;2023-06-14T08:24:46;4.25;;;2.13;;
45065;SDS011;30830;53.704;10.004;2023-06-14T08:27:12;2.60;;;2.20;;
45065;SDS011;30830;53.704;10.004;2023-06-14T08:29:38;3.28;;;1.60;;
45065;SDS011;30830;53.704;10.004;2023-06-14T08:32:05;3.53;;;2.30;;
45065;SDS011;30830;53.704;10.004;2023-06-14T08:34:32;2.42;;;1.85;;
45065;SDS011;30830;53.704;10.004;2023-06-14T08:36:57;3.42;;;1.77;;
45065;SDS011;30830;53.704;10.004;2023-06-14T08:39:24;2.35;;;1.80;;
45065;SDS011;30830;53.704;10.004;2023-06-14T08:41:49;3.42;;;2.10;;
45065;SDS011;30830;53.704;10.004;2023-06-14T08:44:17;4.72;;;2.40;;
45065;SDS011;30830;53.704;10.004;2023-06-14T08:46:43;3.47;;;1.95;;
45065;SDS011;30830;53.704;10.004;2023-06-14T08:49:11;3.25;;;2.20;;
45065;SDS011;30830;53.704;10.004;2023-06-14T08:51:37;3.60;;;2.28;;
45065;SDS011;30830;53.704;10.004;2023-06-14T08:54:03;2.72;;;1.90;;
45065;SDS011;30830;53.704;10.004;2023-06-14T08:56:30;2.88;;;2.17;;
45065;SDS011;30830;53.704;10.004;2023-06-14T08:58:56;4.90;;;2.35;;
45065;SDS011;30830;53.704;10.004;2023-06-14T09:01:27;4.72;;;2.90;;
45065;SDS011;30830;53.704;10.004;2023-06-14T09:03:53;2.95;;;2.13;;
45065;SDS011;30830;53.704;10.004;2023-06-14T09:06:22;4.25;;;2.78;;
45065;SDS011;30830;53.704;10.004;2023-06-14T09:08:49;3.80;;;2.20;;
45065;SDS011;30830;53.704;10.004;2023-06-14T09:11:16;1.95;;;1.75;;
45065;SDS011;30830;53.704;10.004;2023-06-14T09:13:44;4.38;;;2.42;;
45065;SDS011;30830;53.704;10.004;2023-06-14T09:16:14;3.97;;;2.70;;
45065;SDS011;30830;53.704;10.004;2023-06-14T09:21:08;3.80;;;2.20;;
45065;SDS011;30830;53.704;10.004;2023-06-14T09:23:41;3.63;;;2.13;;
45065;SDS011;30830;53.704;10.004;2023-06-14T09:26:11;6.82;;;2.55;;
45065;SDS011;30830;53.704;10.004;2023-06-14T09:28:48;5.10;;;3.03;;
45065;SDS011;30830;53.704;10.004;2023-06-14T09:31:19;2.88;;;2.20;;
45065;SDS011;30830;53.704;10.004;2023-06-14T09:33:46;2.38;;;2.17;;
45065;SDS011;30830;53.704;10.004;2023-06-14T09:36:22;2.67;;;2.15;;
45065;SDS011;30830;53.704;10.004;2023-06-14T09:38:55;3.83;;;2.45;;
45065;SDS011;30830;53.704;10.004;2023-06-14T09:41:31;3.58;;;2.30;;
45065;SDS011;30830;53.704;10.004;2023-06-14T09:44:00;3.67;;;2.45;;
45065;SDS011;30830;53.704;10.004;2023-06-14T09:46:29;2.67;;;2.05;;
45065;SDS011;30830;53.704;10.004;2023-06-14T09:48:58;5.47;;;2.70;;
45065;SDS011;30830;53.704;10.004;2023-06-14T09:51:25;4.00;;;2.30;;
45065;SDS011;30830;53.704;10.004;2023-06-14T09:53:51;5.07;;;2.55;;
45065;SDS011;30830;53.704;10.004;2023-06-14T09:56:31;2.95;;;2.08;;
45065;SDS011;30830;53.704;10.004;2023-06-14T09:58:59;5.93;;;2.53;;
45065;SDS011;30830;53.704;10.004;2023-06-14T10:01:30;6.78;;;2.60;;
45065;SDS011;30830;53.704;10.004;2023-06-14T10:04:04;4.32;;;2.60;;
45065;SDS011;30830;53.704;10.004;2023-06-14T10:06:31;3.45;;;2.20;;
45065;SDS011;30830;53.704;10.004;2023-06-14T10:09:02;3.17;;;2.22;;
45065;SDS011;30830;53.704;10.004;2023-06-14T10:11:30;3.17;;;2.47;;
45065;SDS011;30830;53.704;10.004;2023-06-14T10:13:57;5.20;;;2.35;;
45065;SDS011;30830;53.704;10.004;2023-06-14T10:16:31;4.07;;;1.95;;
45065;SDS011;30830;53.704;10.004;2023-06-14T10:19:03;6.07;;;2.47;;
45065;SDS011;30830;53.704;10.004;2023-06-14T10:24:33;3.85;;;2.70;;
45065;SDS011;30830;53.704;10.004;2023-06-14T10:27:06;3.25;;;2.72;;
45065;SDS011;30830;53.704;10.004;2023-06-14T10:29:35;2.92;;;2.20;;
45065;SDS011;30830;53.704;10.004;2023-06-14T10:32:26;2.70;;;2.20;;
45065;SDS011;30830;53.704;10.004;2023-06-14T10:34:56;4.97;;;2.17;;
45065;SDS011;30830;53.704;10.004;2023-06-14T10:37:24;2.40;;;2.20;;
45065;SDS011;30830;53.704;10.004;2023-06-14T10:39:50;4.32;;;2.20;;
45065;SDS011;30830;53.704;10.004;2023-06-14T10:42:15;6.05;;;1.85;;
45065;SDS011;30830;53.704;10.004;2023-06-14T10:47:11;3.58;;;2.20;;
45065;SDS011;30830;53.704;10.004;2023-06-14T10:49:51;3.08;;;2.70;;
45065;SDS011;30830;53.704;10.004;2023-06-14T10:52:38;3.05;;;2.50;;
45065;SDS011;30830;53.704;10.004;2023-06-14T10:55:13;4.47;;;2.50;;
45065;SDS011;30830;53.704;10.004;2023-06-14T10:57:44;2.80;;;2.25;;
45065;SDS011;30830;53.704;10.004;2023-06-14T11:00:11;5.50;;;2.63;;
45065;SDS011;30830;53.704;10.004;2023-06-14T11:11:10;2.78;;;2.45;;
45065;SDS011;30830;53.704;10.004;2023-06-14T11:13:38;3.30;;;2.30;;
45065;SDS011;30830;53.704;10.004;2023-06-14T11:16:10;6.07;;;2.22;;
45065;SDS011;30830;53.704;10.004;2023-06-14T11:18:39;3.53;;;2.28;;
45065;SDS011;30830;53.704;10.004;2023-06-14T11:21:06;3.45;;;2.50;;
45065;SDS011;30830;53.704;10.004;2023-06-14T11:23:32;2.10;;;1.98;;
45065;SDS011;30830;53.704;10.004;2023-06-14T11:25:57;4.53;;;2.63;;
45065;SDS011;30830;53.704;10.004;2023-06-14T11:28:23;4.65;;;2.42;;
45065;SDS011;30830;53.704;10.004;2023-06-14T11:30:49;3.25;;;1.95;;
45065;SDS011;30830;53.704;10.004;2023-06-14T11:33:24;3.17;;;2.25;;
45065;SDS011;30830;53.704;10.004;2023-06-14T11:35:50;4.85;;;2.80;;
45065;SDS011;30830;53.704;10.004;2023-06-14T11:38:17;3.85;;;2.33;;
45065;SDS011;30830;53.704;10.004;2023-06-14T11:40:42;4.68;;;2.15;;
45065;SDS011;30830;53.704;10.004;2023-06-14T11:43:08;1.92;;;1.77;;
45065;SDS011;30830;53.704;10.004;2023-06-14T11:45:34;4.38;;;2.40;;
45065;SDS011;30830;53.704;10.004;2023-06-14T11:48:00;2.63;;;2.10;;
45065;SDS011;30830;53.704;10.004;2023-06-14T11:50:26;3.42;;;2.15;;
45065;SDS011;30830;53.704;10.004;2023-06-14T11:52:53;2.92;;;2.00;;
45065;SDS011;30830;53.704;10.004;2023-06-14T11:55:19;4.15;;;2.35;;
45065;SDS011;30830;53.704;10.004;2023-06-14T11:57:46;3.38;;;2.20;;
45065;SDS011;30830;53.704;10.004;2023-06-14T12:00:12;4.28;;;2.47;;
45065;SDS011;30830;53.704;10.004;2023-06-14T12:02:38;3.42;;;1.90;;
45065;SDS011;30830;53.704;10.004;2023-06-14T12:05:06;3.50;;;2.58;;
45065;SDS011;30830;53.704;10.004;2023-06-14T12:07:34;3.55;;;2.20;;
45065;SDS011;30830;53.704;10.004;2023-06-14T12:12:27;2.60;;;2.35;;
45065;SDS011;30830;53.704;10.004;2023-06-14T12:14:55;11.85;;;2.70;;
45065;SDS011;30830;53.704;10.004;2023-06-14T12:17:21;4.35;;;2.30;;
45065;SDS011;30830;53.704;10.004;2023-06-14T12:19:48;2.90;;;2.50;;
45065;SDS011;30830;53.704;10.004;2023-06-14T12:22:14;6.38;;;2.55;;
45065;SDS011;30830;53.704;10.004;2023-06-14T12:24:44;2.25;;;2.05;;
45065;SDS011;30830;53.704;10.004;2023-06-14T12:27:10;3.85;;;2.70;;
45065;SDS011;30830;53.704;10.004;2023-06-14T12:29:40;3.45;;;2.10;;
45065;SDS011;30830;53.704;10.004;2023-06-14T12:32:09;4.60;;;2.60;;
45065;SDS011;30830;53.704;10.004;2023-06-14T12:34:35;5.15;;;2.03;;
45065;SDS011;30830;53.704;10.004;2023-06-14T12:37:01;4.15;;;2.47;;
45065;SDS011;30830;53.704;10.004;2023-06-14T12:39:29;7.13;;;2.47;;
45065;SDS011;30830;53.704;10.004;2023-06-14T12:41:56;3.80;;;2.30;;
45065;SDS011;30830;53.704;10.004;2023-06-14T12:44:22;2.88;;;2.13;;
45065;SDS011;30830;53.704;10.004;2023-06-14T12:46:48;3.58;;;1.98;;
45065;SDS011;30830;53.704;10.004;2023-06-14T12:49:16;2.83;;;2.00;;
45065;SDS011;30830;53.704;10.004;2023-06-14T12:51:42;3.95;;;2.55;;
45065;SDS011;30830;53.704;10.004;2023-06-14T12:54:08;6.47;;;2.15;;
45065;SDS011;30830;53.704;10.004;2023-06-14T12:56:34;3.20;;;2.35;;
45065;SDS011;30830;53.704;10.004;2023-06-14T12:58:59;2.90;;;2.13;;
45065;SDS011;30830;53.704;10.004;2023-06-14T13:01:25;3.20;;;1.98;;
45065;SDS011;30830;53.704;10.004;2023-06-14T13:03:51;2.88;;;2.28;;
45065;SDS011;30830;53.704;10.004;2023-06-14T13:06:20;2.55;;;2.13;;
45065;SDS011;30830;53.704;10.004;2023-06-14T13:08:50;3.88;;;2.10;;
45065;SDS011;30830;53.704;10.004;2023-06-14T13:11:15;4.20;;;2.08;;
45065;SDS011;30830;53.704;10.004;2023-06-14T13:13:41;2.20;;;2.05;;
45065;SDS011;30830;53.704;10.004;2023-06-14T13:16:06;6.03;;;2.15;;
45065;SDS011;30830;53.704;10.004;2023-06-14T13:18:32;3.60;;;2.75;;
45065;SDS011;30830;53.704;10.004;2023-06-14T13:20:57;3.53;;;1.98;;
45065;SDS011;30830;53.704;10.004;2023-06-14T13:23:23;3.38;;;2.03;;
45065;SDS011;30830;53.704;10.004;2023-06-14T13:25:48;2.75;;;2.00;;
45065;SDS011;30830;53.704;10.004;2023-06-14T13:28:17;2.90;;;2.10;;
45065;SDS011;30830;53.704;10.004;2023-06-14T13:30:43;6.88;;;1.95;;
45065;SDS011;30830;53.704;10.004;2023-06-14T13:33:08;2.55;;;1.83;;
45065;SDS011;30830;53.704;10.004;2023-06-14T13:35:34;4.82;;;2.25;;
45065;SDS011;30830;53.704;10.004;2023-06-14T13:38:00;5.53;;;2.40;;
45065;SDS011;30830;53.704;10.004;2023-06-14T13:40:26;2.00;;;1.85;;
45065;SDS011;30830;53.704;10.004;2023-06-14T13:42:51;3.45;;;2.10;;
45065;SDS011;30830;53.704;10.004;2023-06-14T13:45:17;3.33;;;2.00;;
45065;SDS011;30830;53.704;10.004;2023-06-14T13:47:43;3.72;;;2.35;;
45065;SDS011;30830;53.704;10.004;2023-06-14T13:50:08;2.05;;;1.85;;
45065;SDS011;30830;53.704;10.004;2023-06-14T13:52:34;2.65;;;1.88;;
45065;SDS011;30830;53.704;10.004;2023-06-14T13:55:00;3.08;;;1.60;;
45065;SDS011;30830;53.704;10.004;2023-06-14T13:57:26;2.70;;;1.98;;
45065;SDS011;30830;53.704;10.004;2023-06-14T13:59:51;1.92;;;1.65;;
45065;SDS011;30830;53.704;10.004;2023-06-14T14:02:20;8.73;;;2.50;;
45065;SDS011;30830;53.704;10.004;2023-06-14T14:04:46;2.88;;;2.22;;
45065;SDS011;30830;53.704;10.004;2023-06-14T14:07:17;7.18;;;1.90;;
45065;SDS011;30830;53.704;10.004;2023-06-14T14:09:44;3.42;;;1.90;;
45065;SDS011;30830;53.704;10.004;2023-06-14T14:12:10;9.15;;;2.35;;
45065;SDS011;30830;53.704;10.004;2023-06-14T14:14:36;3.03;;;1.85;;
45065;SDS011;30830;53.704;10.004;2023-06-14T14:17:02;7.47;;;2.30;;
45065;SDS011;30830;53.704;10.004;2023-06-14T14:19:27;4.05;;;2.13;;
45065;SDS011;30830;53.704;10.004;2023-06-14T14:21:53;2.17;;;1.80;;
45065;SDS011;30830;53.704;10.004;2023-06-14T14:24:19;3.53;;;2.15;;
45065;SDS011;30830;53.704;10.004;2023-06-14T14:26:44;3.65;;;2.15;;
45065;SDS011;30830;53.704;10.004;2023-06-14T14:29:12;4.45;;;2.03;;
45065;SDS011;30830;53.704;10.004;2023-06-14T14:31:38;4.20;;;2.28;;
45065;SDS011;30830;53.704;10.004;2023-06-14T14:34:03;3.10;;;1.75;;
45065;SDS011;30830;53.704;10.004;2023-06-14T14:36:29;5.80;;;1.90;;
45065;SDS011;30830;53.704;10.004;2023-06-14T14:38:55;2.85;;;2.13;;
45065;SDS011;30830;53.704;10.004;2023-06-14T14:41:20;2.40;;;1.98;;
45065;SDS011;30830;53.704;10.004;2023-06-14T14:43:46;5.30;;;2.20;;
45065;SDS011;30830;53.704;10.004;2023-06-14T14:46:11;3.05;;;2.15;;
45065;SDS011;30830;53.704;10.004;2023-06-14T14:48:37;3.45;;;2.60;;
45065;SDS011;30830;53.704;10.004;2023-06-14T14:51:03;4.32;;;1.98;;
45065;SDS011;30830;53.704;10.004;2023-06-14T14:53:28;3.58;;;2.55;;